»·PEaware :: N878FA KBFL-KCMA

N878FA :: KBFL-KCMA

FLIGHT INFORMATION

Flight Status: Arrived
Operator: Privately registered:
United States
More flights under this callsign
Pilot: D V. (24879)
Aircraft: CESSNA 172 SKYHAWK
(C172)
More flights by this aircraft type
Origin: KBFL Meadows
United States
Destination: KCMA Camarillo
United States
More flights between these airports :: More routes between these airports
Route: GMN
File this flight plan on PilotEdge
Remarks:
Altitude:
(Current/Filed)
7,500ft
Speed:
(Current/Filed)
100kts
Departed: 12-Apr-20 11:58 AM
Arrived: 12-Apr-20 01:17 PM
Distance/Time
Traveled:
73nm/1:19
Distance/Time
To Go:
Arrived

Flight Plot

Page will automatically refresh every two minutes.


Map Options




Map Legend


Flown Route
Filed Route
Departure Airport
Arrival Airport
Navaid (VOR, NDB)
Fix

Horizontal Profiles

Position Reports

Time Latitude Longitude Heading Altitude Ground
Speed
12-Apr-20 11:30 35.428624 -119.045844 185 492ft 0kts
12-Apr-20 11:30 35.428624 -119.045844 185 492ft 0kts
12-Apr-20 11:31 35.428624 -119.045844 185 492ft 0kts
12-Apr-20 11:32 35.428624 -119.045844 185 492ft 0kts
12-Apr-20 11:34 35.428624 -119.045844 185 492ft 0kts
12-Apr-20 11:34 35.428624 -119.045844 185 492ft 0kts
12-Apr-20 11:35 35.428624 -119.045844 185 492ft 0kts
12-Apr-20 11:36 35.428601 -119.045847 184 492ft 0kts
12-Apr-20 11:37 35.428601 -119.045847 184 492ft 0kts
12-Apr-20 11:38 35.428601 -119.045847 184 492ft 0kts
12-Apr-20 11:39 35.428551 -119.045853 185 492ft 0kts
12-Apr-20 11:40 35.428456 -119.045865 185 491ft 0kts
12-Apr-20 11:41 35.428456 -119.045865 185 491ft 0kts
12-Apr-20 11:42 35.428456 -119.045865 185 491ft 0kts
12-Apr-20 11:43 35.428456 -119.045865 185 491ft 0kts
12-Apr-20 11:44 35.428456 -119.045865 185 491ft 0kts
12-Apr-20 11:45 35.428456 -119.045865 185 491ft 0kts
12-Apr-20 11:46 35.428456 -119.045865 185 491ft 0kts
12-Apr-20 11:47 35.428456 -119.045865 185 491ft 0kts
12-Apr-20 11:48 35.428456 -119.045865 185 491ft 0kts
12-Apr-20 11:49 35.428456 -119.045865 185 491ft 0kts
12-Apr-20 11:50 35.428456 -119.045865 185 491ft 0kts
12-Apr-20 11:51 35.428456 -119.045865 185 491ft 0kts
12-Apr-20 11:52 35.428456 -119.045865 185 491ft 0kts
12-Apr-20 11:53 35.426046 -119.044536 134 481ft 12kts
12-Apr-20 11:54 35.425769 -119.044711 227 480ft 0kts
12-Apr-20 11:55 35.425769 -119.044711 227 480ft 0kts
12-Apr-20 11:56 35.426116 -119.046857 313 477ft 12kts
12-Apr-20 11:57 35.440835 -119.065322 311 865ft 93kts
12-Apr-20 11:58 35.457174 -119.089693 304 1521ft 95kts
12-Apr-20 11:59 35.479551 -119.095095 40 2035ft 108kts
12-Apr-20 12:00 35.474177 -119.064176 120 2480ft 115kts
12-Apr-20 12:01 35.456038 -119.034409 125 3105ft 108kts
12-Apr-20 12:02 35.435618 -119.017545 181 3545ft 110kts
12-Apr-20 12:03 35.409722 -119.018530 183 4084ft 101kts
12-Apr-20 12:04 35.387058 -119.020370 182 4507ft 101kts
12-Apr-20 12:05 35.360786 -119.019404 179 4897ft 101kts
12-Apr-20 12:06 35.336853 -119.019880 183 5349ft 97kts
12-Apr-20 12:07 35.311091 -119.021097 181 5753ft 99kts
12-Apr-20 12:08 35.287297 -119.019293 174 6110ft 100kts
12-Apr-20 12:09 35.260002 -119.015101 181 6534ft 97kts
12-Apr-20 12:10 35.233380 -119.010592 177 6918ft 98kts
12-Apr-20 12:11 35.208320 -119.005418 169 7248ft 101kts
12-Apr-20 12:12 35.183906 -119.000136 174 7490ft 108kts
12-Apr-20 12:13 35.154537 -118.991339 171 7449ft 110kts
12-Apr-20 12:14 35.128730 -118.983625 168 7309ft 109kts
12-Apr-20 12:15 35.103387 -118.973469 166 7207ft 108kts
12-Apr-20 12:16 35.076187 -118.961445 162 7515ft 110kts
12-Apr-20 12:17 35.050757 -118.951587 170 7810ft 106kts
12-Apr-20 12:18 35.024977 -118.943934 171 7883ft 112kts
12-Apr-20 12:19 35.000385 -118.934193 163 7659ft 113kts
12-Apr-20 12:20 34.974794 -118.924868 169 7519ft 111kts
12-Apr-20 12:21 34.950244 -118.916105 169 7409ft 111kts
12-Apr-20 12:22 34.925613 -118.906748 166 7356ft 109kts
12-Apr-20 12:23 34.901815 -118.896579 167 7350ft 110kts
12-Apr-20 12:24 34.882509 -118.889803 171 7508ft 110kts
12-Apr-20 12:25 34.856682 -118.882333 174 7500ft 112kts
12-Apr-20 12:26 34.832935 -118.873363 161 7503ft 113kts
12-Apr-20 12:27 34.809871 -118.861942 172 7503ft 112kts
12-Apr-20 12:28 34.786312 -118.859901 198 7563ft 101kts
12-Apr-20 12:29 34.766638 -118.870091 227 7832ft 92kts
12-Apr-20 12:30 34.751588 -118.884839 227 8079ft 92kts
12-Apr-20 12:31 34.736261 -118.898729 229 8316ft 90kts
12-Apr-20 12:32 34.717276 -118.907916 207 8480ft 101kts
12-Apr-20 12:33 34.698680 -118.918056 216 8568ft 108kts
12-Apr-20 12:34 34.681369 -118.929217 214 8553ft 97kts
12-Apr-20 12:35 34.664902 -118.936085 210 8443ft 95kts
12-Apr-20 12:36 34.648870 -118.943968 214 8431ft 92kts
12-Apr-20 12:37 34.632688 -118.951272 198 8494ft 96kts
12-Apr-20 12:38 34.617387 -118.959695 214 8576ft 91kts
12-Apr-20 12:39 34.602930 -118.966958 210 8623ft 93kts
12-Apr-20 12:40 34.587069 -118.972873 207 8668ft 94kts
12-Apr-20 12:41 34.571810 -118.980118 213 8695ft 94kts
12-Apr-20 12:42 34.557628 -118.989815 221 8701ft 95kts
12-Apr-20 12:43 34.543587 -118.999994 215 8689ft 100kts
12-Apr-20 12:44 34.528061 -119.008817 212 8700ft 100kts
12-Apr-20 12:45 34.510770 -119.015087 195 8652ft 111kts
12-Apr-20 12:46 34.494580 -119.021569 215 8592ft 110kts
12-Apr-20 12:47 34.479665 -119.032630 221 8477ft 112kts
12-Apr-20 12:48 34.465065 -119.043988 216 8433ft 110kts
12-Apr-20 12:49 34.451327 -119.052434 214 8067ft 113kts
12-Apr-20 12:50 34.438027 -119.060614 211 7684ft 112kts
12-Apr-20 12:51 34.425128 -119.067976 212 7325ft 110kts
12-Apr-20 12:52 34.413115 -119.075466 216 6984ft 107kts
12-Apr-20 12:53 34.402244 -119.081862 211 6533ft 108kts
12-Apr-20 12:54 34.392508 -119.087542 208 6191ft 100kts
12-Apr-20 12:55 34.382875 -119.091337 204 5816ft 100kts
12-Apr-20 12:56 34.373595 -119.095113 205 5497ft 94kts
12-Apr-20 12:57 34.365178 -119.098746 207 5150ft 96kts
12-Apr-20 12:58 34.356949 -119.102368 205 4871ft 91kts
12-Apr-20 12:59 34.349102 -119.105949 208 4584ft 87kts
12-Apr-20 13:00 34.341506 -119.108096 193 4286ft 90kts
12-Apr-20 13:01 34.333968 -119.109192 194 4017ft 91kts
12-Apr-20 13:02 34.326946 -119.110844 197 3781ft 88kts
12-Apr-20 13:03 34.319858 -119.113042 201 3530ft 87kts
12-Apr-20 13:04 34.312227 -119.116040 206 3234ft 88kts
12-Apr-20 13:05 34.304839 -119.119703 196 2964ft 89kts
12-Apr-20 13:06 34.294986 -119.121600 194 2637ft 88kts
12-Apr-20 13:07 34.276673 -119.122815 170 2029ft 91kts
12-Apr-20 13:08 34.263662 -119.118006 167 1654ft 88kts
12-Apr-20 13:09 34.250210 -119.112342 162 1310ft 86kts
12-Apr-20 13:10 34.237208 -119.103039 149 1035ft 94kts
12-Apr-20 13:11 34.226505 -119.088389 107 992ft 101kts
12-Apr-20 13:12 34.224702 -119.069361 96 970ft 93kts
12-Apr-20 13:13 34.217849 -119.058200 192 747ft 61kts
12-Apr-20 13:14 34.213787 -119.071398 261 413ft 70kts
12-Apr-20 13:16 34.213745 -119.086078 264 97ft 60kts
12-Apr-20 13:17 34.213794 -119.093910 267 66ft 16kts
12-Apr-20 13:18 34.212992 -119.095580 205 65ft 0kts
12-Apr-20 13:19 34.212992 -119.095580 205 65ft 0kts
12-Apr-20 13:20 34.212992 -119.095580 205 65ft 0kts
12-Apr-20 13:21 34.212525 -119.095742 185 65ft 11kts
12-Apr-20 13:22 34.211124 -119.094788 117 65ft 11kts
12-Apr-20 13:23 34.210687 -119.094031 303 65ft 0kts
12-Apr-20 13:24 34.210687 -119.094031 303 65ft 0kts

Navigation Log

Ident Type
Flight plan parsing failed, navigation log unavailable